createdAt,value
2018-02-16T00:01:40.979Z,22.11
2018-02-16T00:04:07.579Z,21.96
2018-02-16T00:06:34.210Z,22.12
2018-02-16T00:09:00.771Z,21.83
2018-02-16T00:11:27.346Z,21.99
2018-02-16T00:13:53.932Z,21.91
2018-02-16T00:16:20.557Z,21.80
2018-02-16T00:18:47.114Z,21.92
2018-02-16T00:21:13.677Z,21.93
2018-02-16T00:23:40.291Z,21.94
2018-02-16T00:26:06.865Z,21.89
2018-02-16T00:28:33.468Z,21.69
2018-02-16T00:31:00.036Z,21.98
2018-02-16T00:33:26.629Z,21.97
2018-02-16T00:35:53.159Z,21.92
2018-02-16T00:38:19.734Z,22.04
2018-02-16T00:40:46.300Z,22.02
2018-02-16T00:43:12.927Z,22.08
2018-02-16T00:45:39.493Z,22.02
2018-02-16T00:48:06.083Z,22.02
2018-02-16T00:50:32.666Z,22.00
2018-02-16T00:52:59.328Z,22.06
2018-02-16T00:55:25.934Z,21.90
2018-02-16T00:57:52.573Z,22.08
2018-02-16T01:00:19.177Z,22.00
2018-02-16T01:02:45.780Z,22.08
2018-02-16T01:05:12.343Z,22.06
2018-02-16T01:07:38.917Z,22.03
2018-02-16T01:10:05.551Z,22.07
2018-02-16T01:12:32.118Z,22.05
2018-02-16T01:14:58.764Z,21.98
2018-02-16T01:17:25.344Z,21.90
2018-02-16T01:19:52.081Z,21.97
2018-02-16T01:22:18.655Z,21.90
2018-02-16T01:24:45.274Z,21.97
2018-02-16T01:27:11.882Z,21.99
2018-02-16T01:29:38.564Z,21.97
2018-02-16T01:32:05.189Z,21.91
2018-02-16T01:34:31.770Z,22.01
2018-02-16T01:36:58.453Z,22.04
2018-02-16T01:39:25.047Z,22.01
2018-02-16T01:41:51.683Z,22.03
2018-02-16T01:44:18.273Z,22.05
2018-02-16T01:46:44.911Z,22.00
2018-02-16T01:49:11.476Z,22.06
2018-02-16T01:51:38.057Z,22.10
2018-02-16T01:54:04.650Z,22.08
2018-02-16T01:56:31.222Z,22.09
2018-02-16T01:58:57.847Z,21.92
2018-02-16T02:01:24.408Z,22.10
2018-02-16T02:03:51.015Z,22.05
2018-02-16T02:06:17.663Z,22.04
2018-02-16T02:08:44.515Z,22.09
2018-02-16T02:11:11.172Z,22.06
2018-02-16T02:13:37.780Z,22.10
2018-02-16T02:16:04.372Z,22.06
2018-02-16T02:18:30.984Z,22.09
2018-02-16T02:20:57.558Z,22.10
2018-02-16T02:23:24.196Z,22.10
2018-02-16T02:25:50.769Z,22.12
2018-02-16T02:28:17.366Z,22.07
2018-02-16T02:30:43.954Z,22.12
2018-02-16T02:33:10.548Z,22.07
2018-02-16T02:35:37.191Z,22.06
2018-02-16T02:38:03.767Z,21.83
2018-02-16T02:40:30.356Z,22.08
2018-02-16T02:42:56.917Z,22.01
2018-02-16T02:45:23.562Z,22.00
2018-02-16T02:47:50.164Z,21.88
2018-02-16T02:50:16.725Z,21.92
2018-02-16T02:52:43.302Z,21.90
2018-02-16T02:55:09.923Z,21.90
2018-02-16T02:57:36.563Z,21.96
2018-02-16T03:00:03.140Z,21.92
2018-02-16T03:02:29.775Z,21.96
2018-02-16T03:04:56.354Z,22.01
2018-02-16T03:07:22.972Z,21.99
2018-02-16T03:09:49.578Z,22.04
2018-02-16T03:12:16.157Z,22.03
2018-02-16T03:14:42.763Z,22.03
2018-02-16T03:17:09.398Z,22.00
2018-02-16T03:19:36.006Z,22.02
2018-02-16T03:22:02.589Z,22.03
2018-02-16T03:24:29.239Z,22.05
2018-02-16T03:26:55.881Z,22.05
2018-02-16T03:29:22.491Z,21.99
2018-02-16T03:31:49.077Z,22.04
2018-02-16T03:34:15.652Z,22.00
2018-02-16T03:36:42.281Z,22.02
2018-02-16T03:39:08.874Z,22.01
2018-02-16T03:41:35.438Z,22.01
2018-02-16T03:44:02.015Z,21.90
2018-02-16T03:46:28.672Z,21.76
2018-02-16T03:48:55.279Z,21.92
2018-02-16T03:51:21.885Z,21.90
2018-02-16T03:53:48.449Z,21.88
2018-02-16T03:56:15.040Z,21.76
2018-02-16T03:58:41.613Z,21.96
2018-02-16T04:01:08.264Z,21.93
2018-02-16T04:03:34.865Z,21.93
2018-02-16T04:06:01.490Z,21.96
2018-02-16T04:08:28.106Z,21.98
2018-02-16T04:10:54.743Z,21.50
2018-02-16T04:13:21.326Z,20.77
2018-02-16T04:15:47.944Z,20.50
2018-02-16T04:18:14.575Z,20.16
2018-02-16T04:20:41.145Z,20.10
2018-02-16T04:23:07.712Z,19.89
2018-02-16T04:25:34.285Z,20.14
2018-02-16T04:28:00.850Z,19.95
2018-02-16T04:30:27.420Z,20.13
2018-02-16T04:32:53.989Z,20.87
2018-02-16T04:35:20.570Z,21.03
2018-02-16T04:37:47.163Z,21.16
2018-02-16T04:40:13.797Z,21.19
2018-02-16T04:42:40.352Z,21.26
2018-02-16T04:45:06.964Z,21.39
2018-02-16T04:47:33.534Z,21.48
2018-02-16T04:50:00.109Z,21.49
2018-02-16T04:52:26.669Z,21.53
2018-02-16T04:54:53.248Z,21.57
2018-02-16T04:57:19.831Z,21.59
2018-02-16T04:59:46.439Z,21.64
2018-02-16T05:02:13.009Z,21.66
2018-02-16T05:04:39.598Z,21.64
2018-02-16T05:07:06.233Z,21.70
2018-02-16T05:09:32.909Z,21.84
2018-02-16T05:11:59.481Z,21.66
2018-02-16T05:14:26.056Z,21.72
2018-02-16T05:16:52.664Z,21.82
2018-02-16T05:19:19.251Z,21.81
2018-02-16T05:21:45.833Z,21.86
2018-02-16T05:24:12.414Z,21.95
2018-02-16T05:26:39.073Z,21.81
2018-02-16T05:29:05.650Z,21.91
2018-02-16T05:31:32.286Z,21.78
2018-02-16T05:33:58.851Z,21.84
2018-02-16T05:36:25.506Z,21.28
2018-02-16T05:38:52.051Z,21.92
2018-02-16T05:41:18.676Z,21.70
2018-02-16T05:43:45.307Z,21.92
2018-02-16T05:46:11.919Z,21.96
2018-02-16T05:48:38.552Z,21.93
2018-02-16T05:51:05.115Z,21.97
2018-02-16T05:53:31.687Z,22.06
2018-02-16T05:55:58.253Z,22.16
2018-02-16T05:58:24.807Z,22.04
2018-02-16T06:00:51.421Z,22.26
2018-02-16T06:03:18.025Z,22.15
2018-02-16T06:05:44.587Z,22.01
2018-02-16T06:08:11.158Z,22.00
2018-02-16T06:10:37.763Z,22.08
2018-02-16T06:13:04.379Z,22.00
2018-02-16T06:15:30.967Z,22.25
2018-02-16T06:17:57.539Z,22.25
2018-02-16T06:20:24.119Z,21.96
2018-02-16T06:22:50.694Z,22.20
2018-02-16T06:25:17.337Z,22.19
2018-02-16T06:27:43.956Z,22.16
2018-02-16T06:30:10.561Z,22.19
2018-02-16T06:32:37.160Z,22.28
2018-02-16T06:35:03.736Z,22.27
2018-02-16T06:37:30.629Z,22.35
2018-02-16T06:39:57.245Z,22.30
2018-02-16T06:42:23.864Z,22.26
2018-02-16T06:44:50.591Z,22.24
2018-02-16T06:47:17.203Z,22.32
2018-02-16T06:49:43.873Z,22.31
2018-02-16T06:52:11.688Z,22.41
2018-02-16T06:54:37.424Z,22.44
2018-02-16T06:57:04.107Z,22.55
2018-02-16T06:59:30.813Z,22.68
2018-02-16T07:01:57.468Z,22.79
2018-02-16T07:04:24.057Z,22.66
2018-02-16T07:06:50.689Z,22.68
2018-02-16T07:09:17.260Z,22.79
2018-02-16T07:11:43.933Z,22.72
2018-02-16T07:14:10.528Z,22.63
2018-02-16T07:16:37.181Z,22.63
2018-02-16T07:19:03.738Z,22.75
2018-02-16T07:21:30.410Z,22.68
2018-02-16T07:23:58.329Z,22.78
2018-02-16T07:26:24.951Z,22.55
2018-02-16T07:28:51.533Z,22.53
2018-02-16T07:31:19.085Z,22.68
2018-02-16T07:33:45.652Z,22.52
2018-02-16T07:36:12.261Z,22.67
2018-02-16T07:38:39.104Z,22.62
2018-02-16T07:41:05.743Z,22.60
2018-02-16T07:43:32.387Z,22.65
2018-02-16T07:45:59.037Z,22.83
2018-02-16T07:48:25.689Z,23.10
2018-02-16T07:50:52.290Z,22.94
2018-02-16T07:53:18.870Z,22.85
2018-02-16T07:55:45.529Z,22.49
2018-02-16T07:58:12.130Z,22.34
2018-02-16T08:00:38.743Z,22.47
2018-02-16T08:03:05.402Z,22.50
2018-02-16T08:05:32.053Z,22.66
2018-02-16T08:07:58.622Z,22.64
2018-02-16T08:10:25.214Z,22.69
2018-02-16T08:12:51.814Z,22.85
2018-02-16T08:15:18.649Z,22.91
2018-02-16T08:17:45.237Z,22.92
2018-02-16T08:20:12.068Z,23.05
2018-02-16T08:22:38.687Z,23.17
2018-02-16T08:25:05.292Z,23.28
2018-02-16T08:27:31.903Z,23.19
2018-02-16T08:29:58.503Z,23.20
2018-02-16T08:32:25.178Z,23.21
2018-02-16T08:34:51.844Z,23.20
2018-02-16T08:37:18.678Z,23.24
2018-02-16T08:39:45.315Z,23.39
2018-02-16T08:42:11.955Z,23.19
2018-02-16T08:44:38.528Z,23.53
2018-02-16T08:47:05.117Z,23.67
2018-02-16T08:49:31.706Z,23.52
2018-02-16T08:51:58.282Z,23.62
2018-02-16T08:54:24.967Z,23.62
2018-02-16T08:56:51.561Z,23.57
2018-02-16T08:59:18.154Z,23.53
2018-02-16T09:01:44.821Z,23.42
2018-02-16T09:04:11.732Z,23.63
2018-02-16T09:06:38.711Z,23.59
2018-02-16T09:09:05.277Z,24.05
2018-02-16T09:13:37.137Z,24.26
2018-02-16T09:18:00.434Z,24.31
2018-02-16T09:20:27.040Z,25.37
2018-02-16T09:22:53.663Z,24.31
2018-02-16T09:25:20.234Z,24.40
2018-02-16T09:27:46.867Z,24.24
2018-02-16T09:30:13.695Z,24.51
2018-02-16T09:32:40.256Z,24.61
2018-02-16T09:35:06.880Z,24.56
2018-02-16T09:37:36.304Z,24.73
2018-02-16T09:40:02.842Z,24.73
2018-02-16T09:42:29.430Z,24.84
2018-02-16T09:44:56.096Z,24.71
2018-02-16T09:47:22.653Z,24.76
2018-02-16T09:49:49.307Z,24.75
2018-02-16T09:52:15.993Z,24.89
2018-02-16T09:54:42.636Z,24.76
2018-02-16T09:57:09.198Z,24.86
2018-02-16T09:59:35.823Z,24.64
2018-02-16T10:02:02.469Z,24.61
2018-02-16T10:04:29.021Z,24.64
2018-02-16T10:06:55.649Z,24.60
2018-02-16T10:09:22.286Z,24.59
2018-02-16T10:11:48.915Z,24.59
2018-02-16T10:14:15.557Z,24.57
2018-02-16T10:16:42.586Z,24.58
2018-02-16T10:19:09.247Z,24.54
2018-02-16T10:21:35.854Z,24.48
2018-02-16T10:24:02.488Z,24.50
2018-02-16T10:26:29.160Z,24.39
2018-02-16T10:28:55.948Z,24.35
2018-02-16T10:31:22.614Z,24.43
2018-02-16T10:33:49.208Z,24.42
2018-02-16T10:36:15.826Z,24.33
2018-02-16T10:38:42.365Z,24.41
2018-02-16T10:41:09.045Z,24.37
2018-02-16T10:43:35.698Z,24.21
2018-02-16T10:46:02.330Z,24.33
2018-02-16T10:48:28.978Z,24.36
2018-02-16T10:50:55.615Z,24.19
2018-02-16T10:53:22.308Z,24.44
2018-02-16T10:55:49.080Z,24.45
2018-02-16T10:58:15.669Z,24.43
2018-02-16T11:00:42.351Z,24.23
2018-02-16T11:03:09.120Z,24.81
2018-02-16T11:05:35.720Z,24.64
2018-02-16T11:08:02.345Z,24.73
2018-02-16T11:10:29.013Z,24.56
2018-02-16T11:12:55.617Z,24.37
2018-02-16T11:15:22.206Z,24.48
2018-02-16T11:17:48.934Z,24.50
2018-02-16T11:20:15.927Z,24.64
2018-02-16T11:22:42.451Z,24.58
2018-02-16T11:25:09.134Z,24.54
2018-02-16T11:27:35.708Z,24.73
2018-02-16T11:30:02.314Z,24.69
2018-02-16T11:32:29.074Z,24.79
2018-02-16T11:34:55.702Z,24.82
2018-02-16T11:37:22.348Z,24.89
2018-02-16T11:39:48.946Z,24.61
2018-02-16T11:42:15.654Z,24.84
2018-02-16T11:44:42.257Z,24.85
2018-02-16T11:47:08.857Z,24.87
2018-02-16T11:49:35.493Z,24.83
2018-02-16T11:52:03.206Z,24.94
2018-02-16T11:54:29.790Z,24.91
2018-02-16T11:56:56.535Z,25.04
2018-02-16T11:59:23.221Z,25.12
2018-02-16T12:01:49.867Z,24.93
2018-02-16T12:04:16.456Z,24.80
2018-02-16T12:06:43.047Z,24.78
2018-02-16T12:09:09.647Z,25.01
2018-02-16T12:11:36.314Z,25.00
2018-02-16T12:14:02.923Z,25.05
2018-02-16T12:16:29.525Z,25.09
2018-02-16T12:18:56.128Z,25.13
2018-02-16T12:21:22.723Z,25.07
2018-02-16T12:23:49.301Z,25.05
2018-02-16T12:26:15.870Z,24.88
2018-02-16T12:28:42.575Z,25.07
2018-02-16T12:31:09.226Z,25.26
2018-02-16T12:33:35.812Z,25.16
2018-02-16T12:36:02.495Z,25.17
2018-02-16T12:38:29.127Z,25.10
2018-02-16T12:40:56.752Z,25.12
2018-02-16T12:43:23.452Z,25.29
2018-02-16T12:45:50.028Z,25.17
2018-02-16T12:48:16.718Z,25.24
2018-02-16T12:50:43.323Z,25.28
2018-02-16T12:53:09.994Z,25.28
2018-02-16T12:55:36.681Z,25.20
2018-02-16T12:58:03.303Z,25.35
2018-02-16T13:00:45.040Z,25.21
2018-02-16T13:03:11.629Z,25.25
2018-02-16T13:05:38.291Z,25.21
2018-02-16T13:08:04.854Z,25.31
2018-02-16T13:10:31.435Z,25.09
2018-02-16T13:12:58.151Z,25.34
2018-02-16T13:15:24.886Z,25.15
2018-02-16T13:17:51.573Z,25.32
2018-02-16T13:20:18.437Z,25.23
2018-02-16T13:22:45.068Z,25.22
2018-02-16T13:25:11.689Z,25.19
2018-02-16T13:27:38.304Z,25.03
2018-02-16T13:30:04.994Z,25.23
2018-02-16T13:32:31.562Z,25.40
2018-02-16T13:34:58.181Z,25.24
2018-02-16T13:37:24.829Z,25.26
2018-02-16T13:39:51.574Z,25.26
2018-02-16T13:42:18.304Z,25.19
2018-02-16T13:44:44.977Z,25.26
2018-02-16T13:47:11.703Z,25.20
2018-02-16T13:49:38.428Z,25.12
2018-02-16T13:52:05.038Z,25.45
2018-02-16T13:54:32.012Z,25.38
2018-02-16T13:56:58.664Z,25.62
2018-02-16T13:59:25.267Z,25.24
2018-02-16T14:01:52.003Z,25.33
2018-02-16T14:04:18.580Z,25.43
2018-02-16T14:06:45.307Z,25.31
2018-02-16T14:09:11.917Z,25.33
2018-02-16T14:11:38.548Z,25.29
2018-02-16T14:14:05.168Z,25.32
2018-02-16T14:16:31.759Z,25.26
2018-02-16T14:18:58.395Z,25.32
2018-02-16T14:21:24.994Z,25.19
2018-02-16T14:23:51.643Z,25.22
2018-02-16T14:26:18.581Z,25.12
2018-02-16T14:28:45.181Z,25.26
2018-02-16T14:31:11.800Z,25.18
2018-02-16T14:33:38.499Z,25.20
2018-02-16T14:36:05.127Z,25.30
2018-02-16T14:38:31.743Z,25.34
2018-02-16T14:40:58.455Z,26.04
2018-02-16T14:43:27.062Z,25.46
2018-02-16T14:45:53.772Z,25.43
2018-02-16T14:48:20.405Z,25.18
2018-02-16T14:50:47.011Z,25.22
2018-02-16T14:53:13.698Z,25.25
2018-02-16T14:55:40.424Z,25.18
2018-02-16T14:58:07.049Z,25.23
2018-02-16T15:00:33.645Z,25.13
2018-02-16T15:03:00.359Z,25.09
2018-02-16T15:05:26.927Z,25.03
2018-02-16T15:07:53.596Z,25.06
2018-02-16T15:10:20.236Z,25.13
2018-02-16T15:12:46.844Z,25.08
2018-02-16T15:15:13.517Z,24.96
2018-02-16T15:17:40.144Z,25.09
2018-02-16T15:20:06.680Z,25.00
2018-02-16T15:29:37.824Z,25.23
2018-02-16T15:33:42.405Z,25.21
2018-02-16T15:36:09.031Z,24.97
2018-02-16T15:38:35.671Z,25.07
2018-02-16T15:41:02.268Z,25.19
2018-02-16T15:43:28.879Z,25.25
2018-02-16T15:45:55.445Z,25.33
2018-02-16T15:48:22.024Z,25.14
2018-02-16T15:50:48.668Z,24.80
2018-02-16T15:53:15.304Z,24.88
2018-02-16T15:55:41.870Z,24.65
2018-02-16T15:58:09.632Z,24.62
2018-02-16T16:00:36.214Z,24.31
2018-02-16T16:03:02.857Z,24.24
2018-02-16T16:05:29.430Z,23.96
2018-02-16T16:07:56.041Z,24.09
2018-02-16T16:10:22.640Z,24.20
2018-02-16T16:12:49.242Z,24.28
2018-02-16T16:15:15.839Z,24.24
2018-02-16T16:17:42.403Z,24.27
2018-02-16T16:20:09.005Z,24.31
2018-02-16T16:22:35.576Z,24.26
2018-02-16T16:25:02.192Z,24.28
2018-02-16T16:27:28.760Z,24.27
2018-02-16T16:29:55.389Z,24.28
2018-02-16T16:32:21.953Z,24.17
2018-02-16T16:34:48.557Z,24.16
2018-02-16T16:37:15.189Z,24.11
2018-02-16T16:39:41.809Z,24.09
2018-02-16T16:42:08.414Z,24.03
2018-02-16T16:44:35.026Z,24.02
2018-02-16T16:47:01.688Z,24.05
2018-02-16T16:49:28.260Z,23.99
2018-02-16T16:51:56.878Z,24.02
2018-02-16T16:54:23.524Z,24.06
2018-02-16T16:56:50.082Z,24.02
2018-02-16T16:59:16.691Z,24.14
2018-02-16T17:01:43.271Z,24.03
2018-02-16T17:04:09.886Z,23.95
2018-02-16T17:06:36.494Z,23.95
2018-02-16T17:09:03.062Z,23.89
2018-02-16T17:11:29.678Z,23.90
2018-02-16T17:13:56.283Z,24.06
2018-02-16T17:16:22.853Z,23.87
2018-02-16T17:18:49.492Z,23.80
2018-02-16T17:21:16.099Z,23.82
2018-02-16T17:23:42.701Z,23.86
2018-02-16T17:26:09.299Z,23.82
2018-02-16T17:28:35.953Z,23.94
2018-02-16T17:31:02.565Z,23.84
2018-02-16T17:33:29.165Z,23.82
2018-02-16T17:35:55.732Z,23.67
2018-02-16T17:38:22.342Z,23.76
2018-02-16T17:40:48.910Z,23.78
2018-02-16T17:43:15.501Z,23.77
2018-02-16T17:45:42.159Z,23.74
2018-02-16T17:48:08.734Z,23.74
2018-02-16T17:50:35.293Z,23.64
2018-02-16T17:53:01.910Z,23.71
2018-02-16T17:55:28.470Z,23.71
2018-02-16T17:57:55.074Z,23.66
2018-02-16T18:00:21.692Z,23.63
2018-02-16T18:02:48.352Z,23.67
2018-02-16T18:05:14.954Z,23.62
2018-02-16T18:07:41.514Z,23.62
2018-02-16T18:10:08.123Z,23.56
2018-02-16T18:12:34.733Z,23.65
2018-02-16T18:15:01.305Z,23.60
2018-02-16T18:17:27.943Z,23.52
2018-02-16T18:19:54.489Z,23.75
2018-02-16T18:22:21.102Z,23.64
2018-02-16T18:24:47.677Z,23.63
2018-02-16T18:27:14.288Z,23.49
2018-02-16T18:29:40.853Z,23.51
2018-02-16T18:32:07.442Z,23.50
2018-02-16T18:34:34.074Z,23.46
2018-02-16T18:37:00.669Z,23.46
2018-02-16T18:39:27.244Z,23.42
2018-02-16T18:41:53.867Z,23.60
2018-02-16T18:44:20.548Z,23.48
2018-02-16T18:49:54.965Z,23.32
2018-02-16T18:52:25.151Z,23.28
2018-02-16T18:54:51.721Z,23.23
2018-02-16T18:57:18.329Z,23.26
2018-02-16T18:59:44.961Z,23.24
2018-02-16T19:02:11.590Z,23.23
2018-02-16T19:04:38.242Z,23.21
2018-02-16T19:07:04.837Z,23.20
2018-02-16T19:09:31.441Z,23.20
2018-02-16T19:11:58.072Z,23.15
2018-02-16T19:14:24.649Z,23.14
2018-02-16T19:16:51.209Z,23.19
2018-02-16T19:19:17.817Z,23.12
2018-02-16T19:21:44.450Z,23.07
2018-02-16T19:24:11.142Z,23.18
2018-02-16T19:26:37.708Z,23.12
2018-02-16T19:29:04.309Z,23.13
2018-02-16T19:31:30.933Z,23.08
2018-02-16T19:33:57.502Z,23.10
2018-02-16T19:36:24.069Z,23.11
2018-02-16T19:38:50.779Z,23.05
2018-02-16T19:41:17.347Z,23.09
2018-02-16T19:43:44.069Z,23.10
2018-02-16T19:46:10.670Z,23.05
2018-02-16T19:48:37.294Z,23.11
2018-02-16T19:51:03.927Z,23.07
2018-02-16T19:53:30.485Z,23.03
2018-02-16T19:55:57.045Z,23.02
2018-02-16T19:58:23.648Z,23.07
2018-02-16T20:00:50.385Z,23.05
2018-02-16T20:03:17.014Z,23.01
2018-02-16T20:05:43.580Z,22.94
2018-02-16T20:08:10.230Z,22.97
2018-02-16T20:10:36.847Z,22.98
2018-02-16T20:13:03.413Z,22.95
2018-02-16T20:15:30.026Z,22.97
2018-02-16T20:17:56.619Z,22.90
2018-02-16T20:20:23.278Z,22.94
2018-02-16T20:22:49.870Z,22.90
2018-02-16T20:25:16.433Z,22.93
2018-02-16T20:27:43.061Z,22.92
2018-02-16T20:30:09.638Z,22.95
2018-02-16T20:32:36.262Z,22.96
2018-02-16T20:35:02.896Z,23.00
2018-02-16T20:37:29.487Z,22.97
2018-02-16T20:39:56.099Z,23.00
2018-02-16T20:42:22.678Z,22.99
2018-02-16T20:44:49.375Z,22.99
2018-02-16T20:47:15.942Z,23.03
2018-02-16T20:49:42.543Z,22.98
2018-02-16T20:52:09.170Z,22.97
2018-02-16T20:54:35.794Z,22.96
2018-02-16T20:57:02.397Z,23.00
2018-02-16T20:59:28.971Z,23.05
2018-02-16T21:01:55.592Z,23.01
2018-02-16T21:04:22.191Z,23.02
2018-02-16T21:06:48.778Z,22.93
2018-02-16T21:09:15.397Z,22.99
2018-02-16T21:11:41.967Z,22.98
2018-02-16T21:14:08.622Z,23.01
2018-02-16T21:16:35.245Z,22.94
2018-02-16T21:19:01.832Z,22.93
2018-02-16T21:21:28.434Z,22.93
2018-02-16T21:23:55.042Z,22.93
2018-02-16T21:26:21.608Z,22.94
2018-02-16T21:28:48.327Z,22.94
2018-02-16T21:31:14.986Z,22.91
2018-02-16T21:33:41.593Z,22.95
2018-02-16T21:36:08.198Z,22.92
2018-02-16T21:38:34.815Z,22.93
2018-02-16T21:41:01.433Z,22.81
2018-02-16T21:43:27.997Z,22.91
2018-02-16T21:45:54.600Z,22.95
2018-02-16T21:48:21.235Z,22.94
2018-02-16T21:50:47.798Z,22.93
2018-02-16T21:53:14.529Z,22.92
2018-02-16T21:55:41.125Z,22.95
2018-02-16T21:58:07.871Z,22.94
2018-02-16T22:00:34.618Z,22.91
2018-02-16T22:03:01.209Z,22.90
2018-02-16T22:05:27.834Z,22.89
2018-02-16T22:07:54.445Z,22.92
2018-02-16T22:10:21.023Z,22.83
2018-02-16T22:12:47.626Z,22.88
2018-02-16T22:15:14.237Z,22.91
2018-02-16T22:17:40.933Z,22.89
2018-02-16T22:20:07.520Z,22.91
2018-02-16T22:22:34.076Z,22.86
2018-02-16T22:25:00.677Z,22.87
2018-02-16T22:27:27.308Z,22.91
2018-02-16T22:29:53.882Z,22.88
2018-02-16T22:32:20.446Z,22.86
2018-02-16T22:34:47.059Z,22.85
2018-02-16T22:37:13.717Z,22.83
2018-02-16T22:39:40.332Z,22.86
2018-02-16T22:42:06.956Z,22.82
2018-02-16T22:44:33.536Z,22.72
2018-02-16T22:47:00.162Z,22.83
2018-02-16T22:49:26.745Z,22.85
2018-02-16T22:51:53.318Z,22.82
2018-02-16T22:54:19.938Z,22.81
2018-02-16T22:56:46.587Z,22.78
2018-02-16T22:59:13.261Z,22.69
2018-02-16T23:01:39.908Z,22.79
2018-02-16T23:04:06.497Z,22.74
2018-02-16T23:06:33.067Z,22.75
2018-02-16T23:08:59.688Z,22.78
2018-02-16T23:11:26.253Z,22.77
2018-02-16T23:13:52.859Z,22.78
2018-02-16T23:16:19.494Z,22.63
2018-02-16T23:18:46.082Z,22.75
2018-02-16T23:21:12.676Z,22.75
2018-02-16T23:23:39.292Z,22.76
2018-02-16T23:26:05.856Z,22.77
2018-02-16T23:28:32.422Z,22.76
2018-02-16T23:30:59.032Z,22.73
2018-02-16T23:33:25.589Z,22.67
2018-02-16T23:35:52.194Z,22.66
2018-02-16T23:38:18.764Z,22.68
2018-02-16T23:40:45.398Z,22.64
2018-02-16T23:43:11.976Z,22.65
2018-02-16T23:45:38.602Z,22.71
2018-02-16T23:48:05.232Z,22.71
2018-02-16T23:50:31.880Z,22.64
2018-02-16T23:52:58.452Z,22.66
2018-02-16T23:55:25.048Z,22.67
2018-02-16T23:57:51.649Z,22.65
